sensor_id;sensor_type;location;lat;lon;timestamp;pressure;altitude;pressure_sealevel;temperature;humidity
80509;BME280;69838;52.602;13.434;2023-07-22T00:00:07;100614.66;;;10.92;100.00
80509;BME280;69838;52.602;13.434;2023-07-22T00:00:56;100621.31;;;10.84;100.00
80509;BME280;69838;52.602;13.434;2023-07-22T00:01:42;100624.16;;;10.81;100.00
80509;BME280;69838;52.602;13.434;2023-07-22T00:02:27;100621.63;;;10.78;100.00
80509;BME280;69838;52.602;13.434;2023-07-22T00:03:12;100620.81;;;10.76;100.00
80509;BME280;69838;52.602;13.434;2023-07-22T00:03:58;100623.72;;;10.73;100.00
80509;BME280;69838;52.602;13.434;2023-07-22T00:04:43;100622.88;;;10.71;100.00
80509;BME280;69838;52.602;13.434;2023-07-22T00:05:28;100626.94;;;10.80;100.00
80509;BME280;69838;52.602;13.434;2023-07-22T00:06:14;100623.59;;;10.75;100.00
80509;BME280;69838;52.602;13.434;2023-07-22T00:06:59;100619.25;;;10.72;100.00
80509;BME280;69838;52.602;13.434;2023-07-22T00:07:44;100625.59;;;10.71;100.00
80509;BME280;69838;52.602;13.434;2023-07-22T00:08:29;100627.50;;;10.69;100.00
80509;BME280;69838;52.602;13.434;2023-07-22T00:09:15;100625.38;;;10.76;100.00
80509;BME280;69838;52.602;13.434;2023-07-22T00:10:00;100619.63;;;10.82;100.00
80509;BME280;69838;52.602;13.434;2023-07-22T00:10:45;100624.16;;;10.81;100.00
80509;BME280;69838;52.602;13.434;2023-07-22T00:11:31;100624.81;;;10.86;100.00
80509;BME280;69838;52.602;13.434;2023-07-22T00:12:16;100629.28;;;10.87;100.00
80509;BME280;69838;52.602;13.434;2023-07-22T00:13:02;100627.09;;;10.94;100.00
80509;BME280;69838;52.602;13.434;2023-07-22T00:13:47;100621.13;;;11.05;100.00
80509;BME280;69838;52.602;13.434;2023-07-22T00:14:32;100623.75;;;11.06;100.00
80509;BME280;69838;52.602;13.434;2023-07-22T00:15:17;100631.94;;;11.05;100.00
80509;BME280;69838;52.602;13.434;2023-07-22T00:16:03;100623.91;;;11.03;100.00
80509;BME280;69838;52.602;13.434;2023-07-22T00:16:52;100622.34;;;10.99;100.00
80509;BME280;69838;52.602;13.434;2023-07-22T00:17:41;100630.50;;;10.98;100.00
80509;BME280;69838;52.602;13.434;2023-07-22T00:18:28;100625.31;;;10.95;100.00
80509;BME280;69838;52.602;13.434;2023-07-22T00:19:13;100628.94;;;10.94;100.00
80509;BME280;69838;52.602;13.434;2023-07-22T00:19:59;100636.25;;;10.92;100.00
80509;BME280;69838;52.602;13.434;2023-07-22T00:20:45;100625.53;;;10.90;100.00
80509;BME280;69838;52.602;13.434;2023-07-22T00:21:30;100633.63;;;10.90;100.00
80509;BME280;69838;52.602;13.434;2023-07-22T00:22:15;100625.59;;;10.88;100.00
80509;BME280;69838;52.602;13.434;2023-07-22T00:23:00;100628.88;;;10.95;100.00
80509;BME280;69838;52.602;13.434;2023-07-22T00:23:46;100626.38;;;11.08;100.00
80509;BME280;69838;52.602;13.434;2023-07-22T00:24:31;100628.75;;;11.14;100.00
80509;BME280;69838;52.602;13.434;2023-07-22T00:25:16;100622.41;;;11.15;100.00
80509;BME280;69838;52.602;13.434;2023-07-22T00:26:02;100626.59;;;11.21;100.00
80509;BME280;69838;52.602;13.434;2023-07-22T00:26:48;100622.69;;;11.26;100.00
80509;BME280;69838;52.602;13.434;2023-07-22T00:27:34;100626.66;;;11.37;100.00
80509;BME280;69838;52.602;13.434;2023-07-22T00:28:20;100628.44;;;11.38;100.00
80509;BME280;69838;52.602;13.434;2023-07-22T00:29:05;100624.81;;;11.37;100.00
80509;BME280;69838;52.602;13.434;2023-07-22T00:29:50;100620.41;;;11.36;100.00
80509;BME280;69838;52.602;13.434;2023-07-22T00:30:36;100628.25;;;11.41;100.00
80509;BME280;69838;52.602;13.434;2023-07-22T00:31:21;100624.09;;;11.51;100.00
80509;BME280;69838;52.602;13.434;2023-07-22T00:32:07;100618.34;;;11.57;100.00
80509;BME280;69838;52.602;13.434;2023-07-22T00:32:53;100620.97;;;11.59;100.00
80509;BME280;69838;52.602;13.434;2023-07-22T00:33:39;100619.94;;;11.61;100.00
80509;BME280;69838;52.602;13.434;2023-07-22T00:34:24;100621.50;;;11.65;100.00
80509;BME280;69838;52.602;13.434;2023-07-22T00:35:09;100623.16;;;11.68;100.00
80509;BME280;69838;52.602;13.434;2023-07-22T00:35:55;100622.13;;;11.71;100.00
80509;BME280;69838;52.602;13.434;2023-07-22T00:36:41;100623.69;;;11.75;100.00
80509;BME280;69838;52.602;13.434;2023-07-22T00:37:26;100623.69;;;11.75;100.00
80509;BME280;69838;52.602;13.434;2023-07-22T00:38:11;100626.25;;;11.78;100.00
80509;BME280;69838;52.602;13.434;2023-07-22T00:38:56;100633.38;;;11.79;100.00
80509;BME280;69838;52.602;13.434;2023-07-22T00:39:42;100619.78;;;11.80;100.00
80509;BME280;69838;52.602;13.434;2023-07-22T00:40:27;100624.84;;;11.87;100.00
80509;BME280;69838;52.602;13.434;2023-07-22T00:41:13;100624.78;;;11.88;100.00
80509;BME280;69838;52.602;13.434;2023-07-22T00:41:58;100622.06;;;11.88;100.00
80509;BME280;69838;52.602;13.434;2023-07-22T00:42:43;100628.34;;;11.89;100.00
80509;BME280;69838;52.602;13.434;2023-07-22T00:43:28;100629.06;;;11.92;100.00
80509;BME280;69838;52.602;13.434;2023-07-22T00:44:14;100634.41;;;11.94;100.00
80509;BME280;69838;52.602;13.434;2023-07-22T00:44:59;100637.81;;;11.97;100.00
80509;BME280;69838;52.602;13.434;2023-07-22T00:45:44;100632.41;;;11.97;100.00
80509;BME280;69838;52.602;13.434;2023-07-22T00:46:29;100640.31;;;12.00;100.00
80509;BME280;69838;52.602;13.434;2023-07-22T00:47:15;100639.38;;;12.01;100.00
80509;BME280;69838;52.602;13.434;2023-07-22T00:48:01;100626.72;;;12.02;100.00
80509;BME280;69838;52.602;13.434;2023-07-22T00:48:47;100633.03;;;12.02;100.00
80509;BME280;69838;52.602;13.434;2023-07-22T00:49:34;100630.13;;;12.06;100.00
80509;BME280;69838;52.602;13.434;2023-07-22T00:50:19;100633.59;;;12.08;100.00
80509;BME280;69838;52.602;13.434;2023-07-22T00:51:06;100632.81;;;12.06;100.00
80509;BME280;69838;52.602;13.434;2023-07-22T00:51:51;100635.38;;;12.09;100.00
80509;BME280;69838;52.602;13.434;2023-07-22T00:52:40;100637.13;;;12.10;100.00
80509;BME280;69838;52.602;13.434;2023-07-22T00:53:25;100631.72;;;12.10;100.00
80509;BME280;69838;52.602;13.434;2023-07-22T00:54:10;100638.00;;;12.10;100.00
80509;BME280;69838;52.602;13.434;2023-07-22T00:54:56;100636.94;;;12.13;100.00
80509;BME280;69838;52.602;13.434;2023-07-22T00:55:41;100642.34;;;12.13;100.00
80509;BME280;69838;52.602;13.434;2023-07-22T00:56:26;100638.69;;;12.14;100.00
80509;BME280;69838;52.602;13.434;2023-07-22T00:57:12;100634.06;;;12.16;100.00
80509;BME280;69838;52.602;13.434;2023-07-22T00:57:57;100631.34;;;12.16;100.00
80509;BME280;69838;52.602;13.434;2023-07-22T00:58:42;100632.28;;;12.15;100.00
80509;BME280;69838;52.602;13.434;2023-07-22T00:59:28;100634.91;;;12.16;100.00
80509;BME280;69838;52.602;13.434;2023-07-22T01:00:13;100634.06;;;12.16;100.00
80509;BME280;69838;52.602;13.434;2023-07-22T01:01:00;100633.97;;;12.17;100.00
80509;BME280;69838;52.602;13.434;2023-07-22T01:01:46;100633.88;;;12.19;100.00
80509;BME280;69838;52.602;13.434;2023-07-22T01:02:31;100627.69;;;12.17;100.00
80509;BME280;69838;52.602;13.434;2023-07-22T01:03:16;100627.50;;;12.20;100.00
80509;BME280;69838;52.602;13.434;2023-07-22T01:04:04;100633.69;;;12.22;100.00
80509;BME280;69838;52.602;13.434;2023-07-22T01:04:49;100628.28;;;12.22;100.00
80509;BME280;69838;52.602;13.434;2023-07-22T01:05:35;100622.78;;;12.23;100.00
80509;BME280;69838;52.602;13.434;2023-07-22T01:06:22;100624.63;;;12.23;100.00
80509;BME280;69838;52.602;13.434;2023-07-22T01:07:09;100627.34;;;12.23;100.00
80509;BME280;69838;52.602;13.434;2023-07-22T01:07:55;100625.56;;;12.22;100.00
80509;BME280;69838;52.602;13.434;2023-07-22T01:08:40;100631.97;;;12.21;100.00
80509;BME280;69838;52.602;13.434;2023-07-22T01:09:26;100623.16;;;12.17;100.00
80509;BME280;69838;52.602;13.434;2023-07-22T01:10:13;100634.66;;;12.21;100.00
80509;BME280;69838;52.602;13.434;2023-07-22T01:10:58;100628.28;;;12.22;100.00
80509;BME280;69838;52.602;13.434;2023-07-22T01:11:44;100637.28;;;12.22;100.00
80509;BME280;69838;52.602;13.434;2023-07-22T01:12:29;100631.88;;;12.22;100.00
80509;BME280;69838;52.602;13.434;2023-07-22T01:13:14;100637.28;;;12.22;100.00
80509;BME280;69838;52.602;13.434;2023-07-22T01:14:00;100635.53;;;12.21;100.00
80509;BME280;69838;52.602;13.434;2023-07-22T01:14:46;100641.81;;;12.22;100.00
80509;BME280;69838;52.602;13.434;2023-07-22T01:15:32;100645.34;;;12.24;100.00
80509;BME280;69838;52.602;13.434;2023-07-22T01:16:17;100634.38;;;12.26;100.00
80509;BME280;69838;52.602;13.434;2023-07-22T01:17:04;100641.66;;;12.25;100.00
80509;BME280;69838;52.602;13.434;2023-07-22T01:17:50;100639.81;;;12.26;100.00
80509;BME280;69838;52.602;13.434;2023-07-22T01:18:35;100635.38;;;12.25;100.00
80509;BME280;69838;52.602;13.434;2023-07-22T01:19:20;100634.50;;;12.24;100.00
80509;BME280;69838;52.602;13.434;2023-07-22T01:20:06;100632.75;;;12.23;100.00
80509;BME280;69838;52.602;13.434;2023-07-22T01:20:52;100634.38;;;12.26;100.00
80509;BME280;69838;52.602;13.434;2023-07-22T01:21:38;100629.09;;;12.24;100.00
80509;BME280;69838;52.602;13.434;2023-07-22T01:22:24;100627.25;;;12.25;100.00
80509;BME280;69838;52.602;13.434;2023-07-22T01:23:10;100638.00;;;12.26;100.00
80509;BME280;69838;52.602;13.434;2023-07-22T01:23:56;100630.81;;;12.25;100.00
80509;BME280;69838;52.602;13.434;2023-07-22T01:24:42;100625.41;;;12.25;100.00
80509;BME280;69838;52.602;13.434;2023-07-22T01:25:28;100626.38;;;12.24;100.00
80509;BME280;69838;52.602;13.434;2023-07-22T01:26:13;100624.53;;;12.25;100.00
80509;BME280;69838;52.602;13.434;2023-07-22T01:26:59;100631.59;;;12.27;100.00
80509;BME280;69838;52.602;13.434;2023-07-22T01:27:44;100625.31;;;12.27;100.00
80509;BME280;69838;52.602;13.434;2023-07-22T01:28:30;100634.31;;;12.27;100.00
80509;BME280;69838;52.602;13.434;2023-07-22T01:29:15;100627.78;;;12.31;100.00
80509;BME280;69838;52.602;13.434;2023-07-22T01:30:00;100635.00;;;12.31;100.00
80509;BME280;69838;52.602;13.434;2023-07-22T01:30:47;100637.72;;;12.31;100.00
80509;BME280;69838;52.602;13.434;2023-07-22T01:31:34;100639.56;;;12.30;100.00
80509;BME280;69838;52.602;13.434;2023-07-22T01:32:20;100639.56;;;12.30;100.00
80509;BME280;69838;52.602;13.434;2023-07-22T01:33:06;100635.13;;;12.29;100.00
80509;BME280;69838;52.602;13.434;2023-07-22T01:33:51;100635.91;;;12.31;100.00
80509;BME280;69838;52.602;13.434;2023-07-22T01:34:37;100638.59;;;12.31;100.00
80509;BME280;69838;52.602;13.434;2023-07-22T01:35:22;100641.31;;;12.31;100.00
80509;BME280;69838;52.602;13.434;2023-07-22T01:36:07;100638.59;;;12.31;100.00
80509;BME280;69838;52.602;13.434;2023-07-22T01:36:53;100634.06;;;12.32;100.00
80509;BME280;69838;52.602;13.434;2023-07-22T01:37:39;100637.63;;;12.32;100.00
80509;BME280;69838;52.602;13.434;2023-07-22T01:38:24;100639.38;;;12.33;100.00
80509;BME280;69838;52.602;13.434;2023-07-22T01:39:09;100643.94;;;12.33;100.00
80509;BME280;69838;52.602;13.434;2023-07-22T01:39:56;100636.50;;;12.36;100.00
80509;BME280;69838;52.602;13.434;2023-07-22T01:40:42;100638.31;;;12.36;100.00
80509;BME280;69838;52.602;13.434;2023-07-22T01:41:28;100634.13;;;12.30;100.00
80509;BME280;69838;52.602;13.434;2023-07-22T01:42:13;100633.97;;;12.33;100.00
80509;BME280;69838;52.602;13.434;2023-07-22T01:42:58;100634.84;;;12.34;100.00
80509;BME280;69838;52.602;13.434;2023-07-22T01:43:43;100637.38;;;12.37;100.00
80509;BME280;69838;52.602;13.434;2023-07-22T01:44:29;100635.69;;;12.34;100.00
80509;BME280;69838;52.602;13.434;2023-07-22T01:45:14;100635.53;;;12.37;100.00
80509;BME280;69838;52.602;13.434;2023-07-22T01:45:59;100632.91;;;12.36;100.00
80509;BME280;69838;52.602;13.434;2023-07-22T01:46:44;100638.25;;;12.37;100.00
80509;BME280;69838;52.602;13.434;2023-07-22T01:47:30;100631.09;;;12.36;100.00
80509;BME280;69838;52.602;13.434;2023-07-22T01:48:15;100633.81;;;12.36;100.00
80509;BME280;69838;52.602;13.434;2023-07-22T01:49:01;100638.31;;;12.36;100.00
80509;BME280;69838;52.602;13.434;2023-07-22T01:49:46;100640.94;;;12.37;100.00
80509;BME280;69838;52.602;13.434;2023-07-22T01:50:32;100635.53;;;12.37;100.00
80509;BME280;69838;52.602;13.434;2023-07-22T01:51:17;100637.28;;;12.38;100.00
80509;BME280;69838;52.602;13.434;2023-07-22T01:52:02;100639.00;;;12.39;100.00
80509;BME280;69838;52.602;13.434;2023-07-22T01:52:48;100643.47;;;12.40;100.00
80509;BME280;69838;52.602;13.434;2023-07-22T01:53:33;100640.00;;;12.38;100.00
80509;BME280;69838;52.602;13.434;2023-07-22T01:54:18;100641.63;;;12.41;100.00
80509;BME280;69838;52.602;13.434;2023-07-22T01:55:04;100628.09;;;12.41;100.00
80509;BME280;69838;52.602;13.434;2023-07-22T01:55:51;100631.66;;;12.41;100.00
80509;BME280;69838;52.602;13.434;2023-07-22T01:56:36;100633.44;;;12.43;100.00
80509;BME280;69838;52.602;13.434;2023-07-22T01:57:22;100629.94;;;12.40;100.00
80509;BME280;69838;52.602;13.434;2023-07-22T01:58:07;100637.09;;;12.41;100.00
80509;BME280;69838;52.602;13.434;2023-07-22T01:58:52;100632.28;;;12.47;100.00
80509;BME280;69838;52.602;13.434;2023-07-22T01:59:37;100635.97;;;12.46;100.00
80509;BME280;69838;52.602;13.434;2023-07-22T02:00:22;100632.47;;;12.44;100.00
80509;BME280;69838;52.602;13.434;2023-07-22T02:01:08;100637.91;;;12.44;100.00
80509;BME280;69838;52.602;13.434;2023-07-22T02:01:53;100632.56;;;12.42;100.00
80509;BME280;69838;52.602;13.434;2023-07-22T02:02:39;100636.13;;;12.43;100.00
80509;BME280;69838;52.602;13.434;2023-07-22T02:03:24;100637.09;;;12.41;100.00
80509;BME280;69838;52.602;13.434;2023-07-22T02:04:10;100639.78;;;12.41;100.00
80509;BME280;69838;52.602;13.434;2023-07-22T02:04:56;100641.63;;;12.41;100.00
80509;BME280;69838;52.602;13.434;2023-07-22T02:05:41;100643.47;;;12.40;100.00
80509;BME280;69838;52.602;13.434;2023-07-22T02:06:26;100651.59;;;12.40;100.00
80509;BME280;69838;52.602;13.434;2023-07-22T02:07:12;100656.94;;;12.42;100.00
80509;BME280;69838;52.602;13.434;2023-07-22T02:07:57;100657.03;;;12.40;100.00
80509;BME280;69838;52.602;13.434;2023-07-22T02:08:42;100657.03;;;12.40;100.00
80509;BME280;69838;52.602;13.434;2023-07-22T02:09:27;100653.53;;;12.38;100.00
80509;BME280;69838;52.602;13.434;2023-07-22T02:10:13;100653.53;;;12.38;100.00
80509;BME280;69838;52.602;13.434;2023-07-22T02:11:01;100658.75;;;12.41;100.00
80509;BME280;69838;52.602;13.434;2023-07-22T02:11:49;100656.03;;;12.41;100.00
80509;BME280;69838;52.602;13.434;2023-07-22T02:12:34;100654.31;;;12.40;100.00
80509;BME280;69838;52.602;13.434;2023-07-22T02:13:19;100655.25;;;12.39;100.00
80509;BME280;69838;52.602;13.434;2023-07-22T02:14:04;100646.19;;;12.40;100.00
80509;BME280;69838;52.602;13.434;2023-07-22T02:14:51;100656.94;;;12.42;100.00
80509;BME280;69838;52.602;13.434;2023-07-22T02:15:37;100648.91;;;12.40;100.00
80509;BME280;69838;52.602;13.434;2023-07-22T02:16:22;100650.81;;;12.38;100.00
80509;BME280;69838;52.602;13.434;2023-07-22T02:17:07;100648.03;;;12.40;100.00
80509;BME280;69838;52.602;13.434;2023-07-22T02:17:54;100654.31;;;12.40;100.00
80509;BME280;69838;52.602;13.434;2023-07-22T02:18:40;100658.88;;;12.40;100.00
80509;BME280;69838;52.602;13.434;2023-07-22T02:19:25;100660.75;;;12.38;100.00
80509;BME280;69838;52.602;13.434;2023-07-22T02:20:12;100658.16;;;12.36;100.00
80509;BME280;69838;52.602;13.434;2023-07-22T02:20:57;100663.56;;;12.36;100.00
80509;BME280;69838;52.602;13.434;2023-07-22T02:21:42;100671.59;;;12.38;100.00
80509;BME280;69838;52.602;13.434;2023-07-22T02:22:28;100666.09;;;12.39;100.00
80509;BME280;69838;52.602;13.434;2023-07-22T02:23:14;100671.34;;;12.43;100.00
80509;BME280;69838;52.602;13.434;2023-07-22T02:23:59;100668.72;;;12.41;100.00
80509;BME280;69838;52.602;13.434;2023-07-22T02:24:44;100669.78;;;12.38;100.00
80509;BME280;69838;52.602;13.434;2023-07-22T02:25:30;100666.44;;;12.33;100.00
80509;BME280;69838;52.602;13.434;2023-07-22T02:26:15;100671.78;;;12.35;100.00
80509;BME280;69838;52.602;13.434;2023-07-22T02:27:00;100670.03;;;12.34;100.00
80509;BME280;69838;52.602;13.434;2023-07-22T02:27:46;100672.81;;;12.32;100.00
80509;BME280;69838;52.602;13.434;2023-07-22T02:28:31;100670.09;;;12.32;100.00
80509;BME280;69838;52.602;13.434;2023-07-22T02:29:16;100674.66;;;12.32;100.00
80509;BME280;69838;52.602;13.434;2023-07-22T02:30:03;100678.22;;;12.32;100.00
80509;BME280;69838;52.602;13.434;2023-07-22T02:30:50;100677.44;;;12.30;100.00
80509;BME280;69838;52.602;13.434;2023-07-22T02:31:37;100681.91;;;12.31;100.00
80509;BME280;69838;52.602;13.434;2023-07-22T02:32:22;100679.22;;;12.31;100.00
80509;BME280;69838;52.602;13.434;2023-07-22T02:33:08;100673.97;;;12.28;100.00
80509;BME280;69838;52.602;13.434;2023-07-22T02:33:53;100677.81;;;12.24;100.00
80509;BME280;69838;52.602;13.434;2023-07-22T02:34:38;100678.75;;;12.23;100.00
80509;BME280;69838;52.602;13.434;2023-07-22T02:35:23;100676.03;;;12.23;100.00
80509;BME280;69838;52.602;13.434;2023-07-22T02:36:09;100676.22;;;12.20;100.00
80509;BME280;69838;52.602;13.434;2023-07-22T02:36:54;100679.69;;;12.22;100.00
80509;BME280;69838;52.602;13.434;2023-07-22T02:37:39;100677.09;;;12.20;100.00
80509;BME280;69838;52.602;13.434;2023-07-22T02:38:24;100683.38;;;12.21;100.00
80509;BME280;69838;52.602;13.434;2023-07-22T02:39:10;100686.09;;;12.21;100.00
80509;BME280;69838;52.602;13.434;2023-07-22T02:39:55;100683.72;;;12.15;100.00
80509;BME280;69838;52.602;13.434;2023-07-22T02:40:40;100693.75;;;12.13;100.00
80509;BME280;69838;52.602;13.434;2023-07-22T02:41:26;100697.59;;;12.09;100.00
80509;BME280;69838;52.602;13.434;2023-07-22T02:42:11;100691.25;;;12.10;100.00
80509;BME280;69838;52.602;13.434;2023-07-22T02:42:56;100686.69;;;12.10;100.00
80509;BME280;69838;52.602;13.434;2023-07-22T02:43:41;100689.66;;;12.06;100.00
80509;BME280;69838;52.602;13.434;2023-07-22T02:44:27;100699.75;;;12.02;100.00
80509;BME280;69838;52.602;13.434;2023-07-22T02:45:12;100690.16;;;11.96;100.00
80509;BME280;69838;52.602;13.434;2023-07-22T02:46:00;100684.75;;;11.96;100.00
80509;BME280;69838;52.602;13.434;2023-07-22T02:46:45;100686.81;;;11.91;100.00
80509;BME280;69838;52.602;13.434;2023-07-22T02:47:32;100687.81;;;11.90;100.00
80509;BME280;69838;52.602;13.434;2023-07-22T02:48:17;100693.84;;;11.95;100.00
80509;BME280;69838;52.602;13.434;2023-07-22T02:49:03;100687.63;;;11.93;100.00
80509;BME280;69838;52.602;13.434;2023-07-22T02:49:48;100684.16;;;11.90;100.00
80509;BME280;69838;52.602;13.434;2023-07-22T02:50:34;100688.00;;;11.85;100.00
80509;BME280;69838;52.602;13.434;2023-07-22T02:51:19;100696.03;;;11.87;100.00
80509;BME280;69838;52.602;13.434;2023-07-22T02:52:05;100694.28;;;11.86;100.00
80509;BME280;69838;52.602;13.434;2023-07-22T02:52:51;100693.56;;;11.82;100.00
80509;BME280;69838;52.602;13.434;2023-07-22T02:53:37;100689.06;;;11.83;100.00
80509;BME280;69838;52.602;13.434;2023-07-22T02:54:22;100695.41;;;11.82;100.00
80509;BME280;69838;52.602;13.434;2023-07-22T02:55:15;100688.34;;;11.79;100.00
80509;BME280;69838;52.602;13.434;2023-07-22T02:56:05;100693.06;;;11.76;100.00
80509;BME280;69838;52.602;13.434;2023-07-22T02:56:52;100694.09;;;11.73;100.00
80509;BME280;69838;52.602;13.434;2023-07-22T02:57:38;100699.69;;;11.70;100.00
80509;BME280;69838;52.602;13.434;2023-07-22T02:58:23;100693.22;;;11.73;100.00
80509;BME280;69838;52.602;13.434;2023-07-22T02:59:09;100696.78;;;11.73;100.00
80509;BME280;69838;52.602;13.434;2023-07-22T02:59:54;100697.84;;;11.71;100.00
80509;BME280;69838;52.602;13.434;2023-07-22T03:00:39;100700.53;;;11.71;100.00
80509;BME280;69838;52.602;13.434;2023-07-22T03:01:25;100696.88;;;11.72;100.00
80509;BME280;69838;52.602;13.434;2023-07-22T03:02:10;100704.38;;;11.67;100.00
80509;BME280;69838;52.602;13.434;2023-07-22T03:02:59;100706.28;;;11.64;100.00
80509;BME280;69838;52.602;13.434;2023-07-22T03:03:47;100711.69;;;11.64;100.00
80509;BME280;69838;52.602;13.434;2023-07-22T03:04:32;100715.34;;;11.63;100.00
80509;BME280;69838;52.602;13.434;2023-07-22T03:05:17;100713.78;;;11.59;100.00
80509;BME280;69838;52.602;13.434;2023-07-22T03:06:03;100703.13;;;11.56;100.00
80509;BME280;69838;52.602;13.434;2023-07-22T03:06:49;100715.84;;;11.54;100.00
80509;BME280;69838;52.602;13.434;2023-07-22T03:07:35;100713.06;;;11.56;100.00
80509;BME280;69838;52.602;13.434;2023-07-22T03:08:20;100712.03;;;11.58;100.00
80509;BME280;69838;52.602;13.434;2023-07-22T03:09:05;100709.25;;;11.60;100.00
80509;BME280;69838;52.602;13.434;2023-07-22T03:09:51;100706.47;;;11.61;100.00
80509;BME280;69838;52.602;13.434;2023-07-22T03:10:36;100710.09;;;11.60;100.00
80509;BME280;69838;52.602;13.434;2023-07-22T03:11:21;100712.03;;;11.58;100.00
80509;BME280;69838;52.602;13.434;2023-07-22T03:12:10;100712.09;;;11.57;100.00
80509;BME280;69838;52.602;13.434;2023-07-22T03:12:55;100712.16;;;11.55;100.00
80509;BME280;69838;52.602;13.434;2023-07-22T03:13:41;100720.47;;;11.52;100.00
80509;BME280;69838;52.602;13.434;2023-07-22T03:14:26;100711.66;;;11.49;100.00
80509;BME280;69838;52.602;13.434;2023-07-22T03:15:11;100715.22;;;11.49;100.00
80509;BME280;69838;52.602;13.434;2023-07-22T03:15:58;100716.00;;;11.51;100.00
80509;BME280;69838;52.602;13.434;2023-07-22T03:16:43;100716.94;;;11.50;100.00
80509;BME280;69838;52.602;13.434;2023-07-22T03:17:28;100719.84;;;11.47;100.00
80509;BME280;69838;52.602;13.434;2023-07-22T03:18:14;100720.28;;;11.55;100.00
80509;BME280;69838;52.602;13.434;2023-07-22T03:18:59;100720.47;;;11.52;100.00
80509;BME280;69838;52.602;13.434;2023-07-22T03:19:45;100721.25;;;11.54;100.00
80509;BME280;69838;52.602;13.434;2023-07-22T03:20:30;100714.25;;;11.50;100.00
80509;BME280;69838;52.602;13.434;2023-07-22T03:21:16;100722.47;;;11.49;100.00
80509;BME280;69838;52.602;13.434;2023-07-22T03:22:01;100725.06;;;11.50;100.00
80509;BME280;69838;52.602;13.434;2023-07-22T03:22:47;100718.84;;;11.48;100.00
80509;BME280;69838;52.602;13.434;2023-07-22T03:23:32;100720.34;;;11.54;100.00
80509;BME280;69838;52.602;13.434;2023-07-22T03:24:18;100715.78;;;11.56;100.00
80509;BME280;69838;52.602;13.434;2023-07-22T03:25:04;100719.50;;;11.53;100.00
80509;BME280;69838;52.602;13.434;2023-07-22T03:25:53;100722.19;;;11.53;100.00
80509;BME280;69838;52.602;13.434;2023-07-22T03:26:38;100723.16;;;11.52;100.00
80509;BME280;69838;52.602;13.434;2023-07-22T03:27:23;100723.06;;;11.54;100.00
80509;BME280;69838;52.602;13.434;2023-07-22T03:28:08;100727.75;;;11.50;100.00
80509;BME280;69838;52.602;13.434;2023-07-22T03:28:53;100730.16;;;11.56;100.00
80509;BME280;69838;52.602;13.434;2023-07-22T03:29:39;100721.25;;;11.54;100.00
80509;BME280;69838;52.602;13.434;2023-07-22T03:30:24;100728.41;;;11.55;100.00
80509;BME280;69838;52.602;13.434;2023-07-22T03:31:10;100721.25;;;11.54;100.00
80509;BME280;69838;52.602;13.434;2023-07-22T03:31:55;100724.75;;;11.56;100.00
80509;BME280;69838;52.602;13.434;2023-07-22T03:32:46;100724.75;;;11.56;100.00
80509;BME280;69838;52.602;13.434;2023-07-22T03:33:38;100729.38;;;11.54;100.00
80509;BME280;69838;52.602;13.434;2023-07-22T03:34:23;100724.91;;;11.53;100.00
80509;BME280;69838;52.602;13.434;2023-07-22T03:35:09;100731.28;;;11.52;100.00
80509;BME280;69838;52.602;13.434;2023-07-22T03:35:55;100730.31;;;11.53;100.00
80509;BME280;69838;52.602;13.434;2023-07-22T03:36:41;100733.09;;;11.52;100.00
80509;BME280;69838;52.602;13.434;2023-07-22T03:37:26;100731.38;;;11.51;100.00
80509;BME280;69838;52.602;13.434;2023-07-22T03:38:11;100730.66;;;11.47;100.00
80509;BME280;69838;52.602;13.434;2023-07-22T03:38:56;100739.53;;;11.49;100.00
80509;BME280;69838;52.602;13.434;2023-07-22T03:39:42;100736.91;;;11.48;100.00
80509;BME280;69838;52.602;13.434;2023-07-22T03:40:27;100744.16;;;11.47;100.00
80509;BME280;69838;52.602;13.434;2023-07-22T03:41:15;100739.69;;;11.46;100.00
80509;BME280;69838;52.602;13.434;2023-07-22T03:42:00;100738.75;;;11.47;100.00
80509;BME280;69838;52.602;13.434;2023-07-22T03:42:50;100730.00;;;11.42;100.00
80509;BME280;69838;52.602;13.434;2023-07-22T03:43:35;100742.41;;;11.46;100.00
80509;BME280;69838;52.602;13.434;2023-07-22T03:44:20;100744.94;;;11.49;100.00
80509;BME280;69838;52.602;13.434;2023-07-22T03:45:07;100742.47;;;11.44;100.00
80509;BME280;69838;52.602;13.434;2023-07-22T03:45:53;100746.06;;;11.45;100.00
80509;BME280;69838;52.602;13.434;2023-07-22T03:46:39;100751.63;;;11.42;100.00
80509;BME280;69838;52.602;13.434;2023-07-22T03:47:24;100746.31;;;11.40;100.00
80509;BME280;69838;52.602;13.434;2023-07-22T03:48:09;100744.47;;;11.41;100.00
80509;BME280;69838;52.602;13.434;2023-07-22T03:48:54;100742.72;;;11.40;100.00
80509;BME280;69838;52.602;13.434;2023-07-22T03:49:40;100747.97;;;11.43;100.00
80509;BME280;69838;52.602;13.434;2023-07-22T03:50:26;100741.75;;;11.41;100.00
80509;BME280;69838;52.602;13.434;2023-07-22T03:51:11;100740.81;;;11.42;100.00
80509;BME280;69838;52.602;13.434;2023-07-22T03:51:56;100743.66;;;11.39;100.00
80509;BME280;69838;52.602;13.434;2023-07-22T03:52:41;100740.19;;;11.37;100.00